Time;durP1;ratioP1;P1;durP2;ratioP2;P2;SDS_P1;SDS_P2;PMS_P1;PMS_P2;Temp;Humidity;BMP_temperature;BMP_pressure;BME280_temperature;BME280_humidity;BME280_pressure;Samples;Min_cycle;Max_cycle;Signal;HPM_P1;HPM_P2
2022/05/05 00:01:12;;;;;;;;;19.00;18.75;;;;;15.42;57.03;101464.13;5094607;27;45033;-87
2022/05/05 00:03:38;;;;;;;;;18.25;16.75;;;;;15.32;57.13;101464.72;5094538;27;44972;-85
2022/05/05 00:06:03;;;;;;;;;15.50;15.50;;;;;15.29;57.27;101452.31;5094732;27;45840;-88
2022/05/05 00:08:30;;;;;;;;;17.75;17.00;;;;;15.76;57.04;101542.75;5094894;27;45068;-86
2022/05/05 00:16:24;;;;;;;;;20.75;19.75;;;;;15.04;56.83;101453.38;5093753;27;45464;-77
2022/05/05 00:18:49;;;;;;;;;20.25;17.00;;;;;15.06;57.06;101466.66;5094189;27;45113;-77
2022/05/05 00:21:15;;;;;;;;;18.50;18.00;;;;;15.13;57.33;101495.13;5094168;27;44970;-76
2022/05/05 00:23:40;;;;;;;;;17.75;16.75;;;;;15.25;57.47;101524.56;5093930;27;44894;-83
2022/05/05 00:26:06;;;;;;;;;16.50;15.25;;;;;15.26;57.18;101555.50;5094113;27;46116;-80
2022/05/05 00:28:31;;;;;;;;;17.25;17.00;;;;;14.86;57.13;101487.28;5087472;27;45152;-76
2022/05/05 00:30:57;;;;;;;;;16.25;14.50;;;;;14.79;57.41;101480.03;5085475;27;45182;-89
2022/05/05 00:33:22;;;;;;;;;17.75;16.00;;;;;15.19;57.38;101554.44;5080841;27;45199;-89
2022/05/05 00:35:47;;;;;;;;;16.00;14.50;;;;;14.63;57.40;101468.06;5071962;28;46983;-89
2022/05/05 00:38:13;;;;;;;;;17.75;17.00;;;;;14.59;57.54;101466.22;5074268;28;44968;-90
2022/05/05 00:40:42;;;;;;;;;16.25;15.75;;;;;14.62;57.69;101483.03;5074560;28;45547;-90
2022/05/05 00:43:07;;;;;;;;;16.00;15.25;;;;;15.02;57.58;101553.03;5072845;28;45359;-86
2022/05/05 00:45:33;;;;;;;;;16.00;15.25;;;;;14.51;57.96;101481.84;5072233;28;47098;-76
2022/05/05 00:48:05;;;;;;;;;18.25;17.75;;;;;14.94;57.90;101558.13;5073515;28;44949;-89
2022/05/05 00:50:33;;;;;;;;;15.50;14.75;;;;;14.41;57.89;101472.69;5073706;28;45233;-86
2022/05/05 00:52:58;;;;;;;;;15.75;15.25;;;;;14.84;58.05;101558.69;5073299;28;45105;-90
2022/05/05 00:55:24;;;;;;;;;13.75;13.00;;;;;14.26;58.05;101468.69;5072194;28;46969;-91
2022/05/05 00:57:49;;;;;;;;;15.25;15.00;;;;;14.73;58.36;101549.53;5075165;28;44983;-92
2022/05/05 01:00:15;;;;;;;;;16.00;15.50;;;;;14.69;58.81;101553.84;5079408;28;45175;-92
2022/05/05 01:02:40;;;;;;;;;17.75;16.50;;;;;14.66;58.56;101563.41;5083406;28;45155;-90
2022/05/05 01:05:06;;;;;;;;;14.25;13.75;;;;;14.15;58.50;101481.56;5083272;28;45044;-86
2022/05/05 01:07:33;;;;;;;;;12.75;12.75;;;;;14.05;58.36;101466.25;5083201;28;45218;-88
2022/05/05 01:09:59;;;;;;;;;14.75;14.75;;;;;14.13;58.77;101500.00;5082128;28;44725;-88
2022/05/05 01:12:29;;;;;;;;;12.00;11.25;;;;;14.14;58.96;101498.28;5078545;28;45074;-91
2022/05/05 01:15:03;;;;;;;;;18.25;14.50;;;;;14.19;58.94;101520.47;5081931;28;45220;-93
2022/05/05 01:17:29;;;;;;;;;14.75;14.50;;;;;14.00;58.82;101483.72;5097765;27;45138;-92
2022/05/05 01:19:54;;;;;;;;;13.00;13.00;;;;;13.89;59.02;101464.84;5097121;27;44639;-91
2022/05/05 01:22:20;;;;;;;;;13.25;12.00;;;;;13.67;58.87;101442.13;5092366;27;45114;-92
2022/05/05 01:30:13;;;;;;;;;12.50;12.00;;;;;13.93;58.85;101502.00;5093793;28;44902;-91
2022/05/05 01:32:39;;;;;;;;;13.00;11.75;;;;;14.29;58.94;101556.03;5093334;27;44956;-87
2022/05/05 01:35:05;;;;;;;;;11.00;11.00;;;;;13.87;59.28;101498.25;5093125;27;45132;-91
2022/05/05 01:37:30;;;;;;;;;11.75;11.25;;;;;13.80;59.13;101491.00;5093454;27;45219;-93
2022/05/05 01:39:56;;;;;;;;;12.00;11.00;;;;;14.25;59.18;101562.97;5093564;27;45153;-92
2022/05/05 01:42:21;;;;;;;;;9.75;9.50;;;;;13.64;59.28;101458.78;5093686;27;44980;-87
2022/05/05 01:44:47;;;;;;;;;10.75;9.75;;;;;13.69;59.53;101472.13;5093382;27;45655;-92
2022/05/05 01:47:12;;;;;;;;;11.00;10.75;;;;;14.17;59.55;101564.44;5092856;27;45055;-92
2022/05/05 01:49:38;;;;;;;;;11.50;11.25;;;;;13.99;59.38;101540.97;5093513;27;45093;-92
2022/05/05 01:52:12;;;;;;;;;11.00;11.00;;;;;13.44;59.60;101443.97;5109346;27;45104;-91
2022/05/05 01:54:38;;;;;;;;;11.25;9.00;;;;;13.58;59.87;101481.44;5091827;28;47376;-89
2022/05/05 01:57:04;;;;;;;;;10.50;10.00;;;;;13.52;59.94;101494.44;5093504;27;45390;-92
2022/05/05 01:59:30;;;;;;;;;12.00;11.75;;;;;13.62;59.83;101504.47;5093534;27;45141;-90
2022/05/05 02:01:56;;;;;;;;;11.00;11.00;;;;;13.51;59.93;101495.28;5093306;27;45318;-92
2022/05/05 02:04:21;;;;;;;;;12.00;10.25;;;;;13.92;59.86;101566.28;5084589;27;46941;-92
2022/05/05 02:06:46;;;;;;;;;11.25;10.50;;;;;13.43;59.88;101495.91;5092397;28;44976;-92
2022/05/05 02:09:12;;;;;;;;;12.50;10.75;;;;;13.49;59.73;101500.50;5092884;27;44914;-88
2022/05/05 02:11:41;;;;;;;;;11.00;10.75;;;;;13.86;59.59;101565.19;5091366;28;45301;-92
2022/05/05 02:14:07;;;;;;;;;10.00;10.00;;;;;13.49;60.18;101518.09;5093049;27;45566;-89
2022/05/05 02:16:32;;;;;;;;;11.50;11.50;;;;;13.30;60.01;101472.56;5092691;27;45166;-92
2022/05/05 02:18:57;;;;;;;;;10.75;10.00;;;;;13.32;60.07;101491.09;5092966;27;45161;-93
2022/05/05 02:21:23;;;;;;;;;13.00;11.67;;;;;13.73;60.11;101579.69;5093032;28;45280;-91
2022/05/05 02:23:48;;;;;;;;;12.00;11.25;;;;;13.27;59.94;101495.31;5092894;27;45375;-91
2022/05/05 02:26:13;;;;;;;;;14.75;13.00;;;;;13.73;60.10;101568.22;5087148;27;45171;-90
2022/05/05 02:28:39;;;;;;;;;12.33;12.33;;;;;13.72;60.30;101569.97;5081644;27;45225;-92
2022/05/05 02:31:04;;;;;;;;;13.25;13.00;;;;;13.23;60.20;101481.09;5071746;28;44960;-92
2022/05/05 02:33:29;;;;;;;;;13.00;11.75;;;;;13.64;60.39;101564.44;5072035;28;45672;-93
2022/05/05 02:38:46;;;;;;;;;17.00;13.75;;;;;13.08;60.51;101469.97;5072771;28;45119;-89
2022/05/05 02:41:12;;;;;;;;;14.00;12.50;;;;;13.46;60.72;101534.72;5072129;28;45122;-91
2022/05/05 02:43:37;;;;;;;;;11.50;11.50;;;;;13.11;60.58;101470.97;5071868;28;45689;-92
2022/05/05 02:46:02;;;;;;;;;14.75;12.25;;;;;13.58;60.76;101551.00;5071946;28;45119;-89
2022/05/05 02:48:28;;;;;;;;;15.25;14.25;;;;;13.49;60.90;101537.47;5072368;28;45132;-91
2022/05/05 02:50:53;;;;;;;;;19.50;16.75;;;;;13.57;60.76;101556.25;5072247;28;45110;-90
2022/05/05 02:56:02;;;;;;;;;14.25;13.50;;;;;13.52;60.84;101549.91;5072347;28;45342;-91
2022/05/05 02:58:29;;;;;;;;;13.50;12.25;;;;;13.49;61.20;101548.03;5072188;28;45025;-92
2022/05/05 03:00:55;;;;;;;;;15.75;15.75;;;;;12.96;61.18;101469.53;5073312;28;45213;-88
2022/05/05 03:03:20;;;;;;;;;14.00;13.75;;;;;13.08;61.05;101488.44;5080982;28;45516;-87
2022/05/05 03:05:46;;;;;;;;;14.75;14.25;;;;;12.88;61.29;101462.22;5071590;28;45153;-86
2022/05/05 03:08:12;;;;;;;;;13.25;13.25;;;;;12.83;61.35;101452.34;5068947;28;45531;-91
2022/05/05 03:10:37;;;;;;;;;16.00;16.00;;;;;13.00;61.49;101503.97;5082697;27;45248;-87
2022/05/05 03:13:03;;;;;;;;;13.75;13.50;;;;;12.86;61.50;101492.03;5075971;27;46113;-86
2022/05/05 03:15:28;;;;;;;;;14.00;12.50;;;;;13.13;61.92;101537.00;5081112;27;45327;-81
2022/05/05 03:17:54;;;;;;;;;16.75;15.75;;;;;12.76;61.65;101474.03;5075163;28;45339;-92
2022/05/05 03:20:19;;;;;;;;;12.25;12.25;;;;;13.18;62.03;101561.84;5073600;28;45250;-83
2022/05/05 03:22:44;;;;;;;;;15.00;14.75;;;;;12.61;62.10;101461.19;5085468;27;45307;-90
2022/05/05 03:25:10;;;;;;;;;12.00;11.25;;;;;12.61;62.32;101472.66;5086492;27;44720;-87
2022/05/05 03:27:36;;;;;;;;;15.50;14.00;;;;;12.62;62.45;101482.38;5074835;27;45233;-78
2022/05/05 03:30:02;;;;;;;;;16.75;14.00;;;;;12.75;62.57;101509.19;5081134;28;45109;-82
2022/05/05 03:32:28;;;;;;;;;16.75;15.00;;;;;12.93;62.60;101554.75;5080078;28;45381;-91
2022/05/05 03:34:54;;;;;;;;;16.50;15.50;;;;;12.48;62.87;101480.03;5076916;28;45016;-86
2022/05/05 03:37:19;;;;;;;;;18.75;17.00;;;;;12.39;62.90;101476.19;5084035;28;45072;-87
2022/05/05 03:39:45;;;;;;;;;18.75;16.00;;;;;12.46;63.00;101493.13;5072312;28;45134;-91
2022/05/05 03:42:10;;;;;;;;;17.50;15.00;;;;;12.48;63.00;101490.59;5080257;28;45527;-80
2022/05/05 03:44:36;;;;;;;;;17.00;15.00;;;;;12.77;63.31;101548.00;5080882;28;45105;-89
2022/05/05 03:47:02;;;;;;;;;15.25;14.75;;;;;12.43;63.15;101492.16;5091695;27;45148;-88
2022/05/05 03:49:27;;;;;;;;;17.25;15.00;;;;;12.78;63.14;101564.72;5083922;27;45180;-79
2022/05/05 03:51:54;;;;;;;;;15.75;15.50;;;;;12.71;63.48;101553.03;5084514;28;45321;-89
2022/05/05 03:54:20;;;;;;;;;14.50;13.75;;;;;12.37;63.73;101485.78;5093708;27;45140;-92
2022/05/05 03:56:45;;;;;;;;;14.00;13.33;;;;;12.84;63.37;101575.50;5095382;27;44877;-88
2022/05/05 03:59:11;;;;;;;;;16.25;15.00;;;;;12.43;63.65;101508.84;5090988;27;45304;-84
2022/05/05 04:01:36;;;;;;;;;17.50;15.25;;;;;12.32;63.73;101482.09;5080038;27;45115;-88
2022/05/05 04:04:01;;;;;;;;;14.25;14.25;;;;;12.87;63.70;101579.16;5074082;28;45177;-87
2022/05/05 04:06:26;;;;;;;;;16.25;15.00;;;;;12.92;63.71;101584.63;5073390;28;45384;-87
2022/05/05 04:08:52;;;;;;;;;19.75;16.25;;;;;12.97;63.71;101577.78;5072397;28;45145;-89
2022/05/05 04:11:17;;;;;;;;;13.00;12.00;;;;;12.87;63.56;101552.78;5072338;28;45996;-86
2022/05/05 04:13:43;;;;;;;;;15.00;15.00;;;;;13.05;63.63;101571.06;5072257;28;45173;-83
2022/05/05 04:16:09;;;;;;;;;16.50;15.25;;;;;12.72;63.13;101506.44;5087660;27;45260;-85
2022/05/05 04:18:35;;;;;;;;;15.00;15.00;;;;;12.76;63.40;101501.34;5073107;28;45260;-83
2022/05/05 04:21:00;;;;;;;;;15.75;14.25;;;;;12.70;63.48;101481.75;5072043;28;45100;-86
2022/05/05 04:23:26;;;;;;;;;15.25;14.50;;;;;13.24;63.29;101567.38;5073110;28;45221;-90
2022/05/05 04:25:55;;;;;;;;;15.25;14.75;;;;;12.75;63.26;101491.63;5073328;28;44962;-85
2022/05/05 04:28:21;;;;;;;;;16.50;15.50;;;;;13.35;63.67;101583.63;5073491;28;44908;-89
2022/05/05 04:30:47;;;;;;;;;16.25;15.25;;;;;12.99;63.52;101522.41;5073706;28;45961;-86
2022/05/05 04:33:13;;;;;;;;;16.50;15.75;;;;;13.43;63.12;101583.03;5073619;28;45182;-81
2022/05/05 04:35:39;;;;;;;;;11.00;11.00;;;;;13.27;63.19;101558.69;5085203;28;45031;-89
2022/05/05 04:38:04;;;;;;;;;12.75;12.00;;;;;12.91;63.28;101496.66;5094491;27;45222;-92
2022/05/05 04:40:31;;;;;;;;;15.25;12.75;;;;;13.13;63.38;101543.19;5094045;27;45310;-90
2022/05/05 04:42:57;;;;;;;;;19.50;17.50;;;;;13.00;63.15;101524.19;5093872;28;45450;-91
2022/05/05 04:45:22;;;;;;;;;15.25;14.50;;;;;13.45;63.39;101603.31;5094090;27;45273;-90
2022/05/05 04:47:47;;;;;;;;;18.50;15.25;;;;;12.99;63.22;101536.50;5093565;28;44870;-91
2022/05/05 04:50:14;;;;;;;;;16.75;14.00;;;;;12.97;63.21;101524.09;5093060;28;45288;-80
2022/05/05 04:52:39;;;;;;;;;13.75;12.75;;;;;12.93;63.39;101522.19;5092097;28;45149;-80
2022/05/05 04:55:05;;;;;;;;;18.00;17.75;;;;;12.86;63.21;101510.50;5093767;27;45194;-82
2022/05/05 04:57:30;;;;;;;;;15.25;14.75;;;;;12.93;63.65;101538.91;5093257;27;45084;-76
2022/05/05 04:59:56;;;;;;;;;17.00;15.75;;;;;12.94;63.82;101521.34;5091728;28;46520;-76
2022/05/05 05:02:21;;;;;;;;;18.00;16.25;;;;;12.94;63.68;101526.63;5092627;27;45015;-75
2022/05/05 05:04:46;;;;;;;;;16.75;16.75;;;;;13.46;63.83;101616.59;5093176;27;45140;-76
2022/05/05 05:07:12;;;;;;;;;20.25;18.50;;;;;13.08;63.88;101549.13;5092832;27;45106;-75
2022/05/05 05:09:37;;;;;;;;;20.50;20.50;;;;;13.52;63.96;101610.63;5093373;28;45186;-91
2022/05/05 05:12:03;;;;;;;;;18.50;16.75;;;;;13.55;64.00;101611.66;5093404;27;45107;-86
2022/05/05 05:14:28;;;;;;;;;20.25;17.50;;;;;13.05;63.92;101523.56;5092362;27;45083;-88
2022/05/05 05:16:54;;;;;;;;;21.75;18.75;;;;;13.32;63.83;101565.03;5093135;27;45036;-84
2022/05/05 05:19:19;;;;;;;;;18.00;17.00;;;;;13.14;63.98;101536.16;5093001;28;45858;-92
2022/05/05 05:21:45;;;;;;;;;17.25;15.75;;;;;13.18;63.85;101533.69;5093082;27;45145;-90
2022/05/05 05:24:10;;;;;;;;;23.50;21.25;;;;;13.27;63.99;101535.81;5093607;28;45215;-87
2022/05/05 05:26:36;;;;;;;;;19.75;19.00;;;;;13.33;64.00;101545.69;5093366;27;45205;-85
2022/05/05 05:29:01;;;;;;;;;17.67;17.67;;;;;13.72;64.08;101604.31;5093353;27;45624;-91
2022/05/05 05:31:28;;;;;;;;;21.75;18.75;;;;;13.41;64.08;101553.06;5093153;27;45123;-91
2022/05/05 05:33:54;;;;;;;;;23.00;20.75;;;;;13.77;63.78;101601.84;5093499;27;45090;-76
2022/05/05 05:36:20;;;;;;;;;22.00;19.75;;;;;13.49;63.92;101552.41;5092351;27;45111;-76
2022/05/05 05:38:45;;;;;;;;;21.25;20.25;;;;;14.01;63.88;101634.41;5092043;27;45604;-80
2022/05/05 05:41:11;;;;;;;;;26.50;21.50;;;;;14.08;63.93;101639.06;5092408;28;45100;-76
2022/05/05 05:43:36;;;;;;;;;23.75;21.75;;;;;13.67;63.86;101553.97;5093071;27;45213;-82
2022/05/05 05:46:02;;;;;;;;;24.75;20.25;;;;;13.67;63.87;101553.06;5092503;27;45212;-77
2022/05/05 05:48:27;;;;;;;;;24.75;23.25;;;;;13.67;63.69;101537.22;5091187;27;45067;-80
2022/05/05 05:50:52;;;;;;;;;26.00;25.25;;;;;14.25;63.77;101642.28;5107651;27;45159;-82
2022/05/05 05:53:19;;;;;;;;;27.75;24.50;;;;;13.92;63.70;101581.25;5092410;27;45024;-77
2022/05/05 05:55:44;;;;;;;;;25.00;24.00;;;;;13.82;63.90;101556.25;5092803;27;45073;-79
2022/05/05 05:58:10;;;;;;;;;22.50;21.25;;;;;13.89;63.66;101562.63;5092292;27;45081;-80
2022/05/05 06:00:35;;;;;;;;;26.50;24.75;;;;;13.85;63.57;101544.91;5092478;27;45032;-85
2022/05/05 06:05:45;;;;;;;;;25.00;22.00;;;;;14.06;63.66;101566.75;5092101;28;45035;-83
2022/05/05 06:08:11;;;;;;;;;25.25;23.75;;;;;14.29;63.60;101598.34;5091999;27;45239;-82
2022/05/05 06:10:36;;;;;;;;;29.50;25.00;;;;;14.61;63.30;101647.94;5092635;27;45206;-84
2022/05/05 06:13:03;;;;;;;;;28.50;25.25;;;;;14.67;63.28;101642.84;5092283;28;45087;-84
2022/05/05 06:15:28;;;;;;;;;29.00;27.00;;;;;14.73;63.24;101642.16;5093193;27;45618;-83
2022/05/05 06:17:54;;;;;;;;;26.50;24.50;;;;;14.45;62.93;101596.25;5092374;27;45774;-86
2022/05/05 06:20:19;;;;;;;;;27.50;25.75;;;;;14.71;63.36;101641.19;5092430;27;45100;-91
2022/05/05 06:22:45;;;;;;;;;21.75;20.75;;;;;14.25;63.18;101557.69;5092318;28;45313;-87
2022/05/05 06:25:11;;;;;;;;;27.50;25.50;;;;;14.32;63.23;101566.69;5092227;28;45087;-85
2022/05/05 06:27:37;;;;;;;;;27.50;25.50;;;;;14.27;63.28;101547.16;5091990;27;45649;-87
2022/05/05 06:30:05;;;;;;;;;25.00;24.00;;;;;14.34;63.11;101559.75;5092382;27;45139;-89
2022/05/05 06:32:30;;;;;;;;;27.50;25.00;;;;;14.92;63.16;101651.56;5091665;27;45154;-87
2022/05/05 06:34:55;;;;;;;;;33.00;28.67;;;;;14.94;63.32;101645.47;5092214;27;45096;-92
2022/05/05 06:37:22;;;;;;;;;26.75;23.00;;;;;14.46;63.01;101553.06;5091855;27;45642;-88
2022/05/05 06:39:49;;;;;;;;;25.50;24.25;;;;;15.03;62.88;101654.56;5092105;27;45190;-88
2022/05/05 06:42:15;;;;;;;;;27.50;25.75;;;;;14.61;63.18;101575.59;5091882;27;45015;-89
2022/05/05 06:44:41;;;;;;;;;25.75;24.75;;;;;14.66;62.99;101576.66;5092094;27;44932;-88
2022/05/05 06:47:07;;;;;;;;;27.50;25.75;;;;;14.82;62.91;101597.44;5091372;27;45841;-89
2022/05/05 06:49:33;;;;;;;;;24.25;22.75;;;;;15.23;62.54;101662.25;5091067;27;45622;-84
2022/05/05 06:51:59;;;;;;;;;29.25;25.50;;;;;14.86;62.86;101598.44;5092033;28;45009;-91
2022/05/05 06:54:25;;;;;;;;;30.25;26.75;;;;;14.89;62.98;101595.88;5091984;27;45215;-82
2022/05/05 06:56:50;;;;;;;;;22.25;21.00;;;;;14.91;62.51;101583.59;5091968;27;46009;-77
2022/05/05 06:59:16;;;;;;;;;30.25;28.00;;;;;15.03;62.69;101612.19;5091784;27;45159;-82
2022/05/05 07:01:53;;;;;;;;;21.25;20.75;;;;;14.94;62.45;101586.34;5091338;27;45134;-79
2022/05/05 07:07:08;;;;;;;;;25.75;22.50;;;;;15.04;62.00;101616.63;5091399;28;45093;-82
2022/05/05 07:12:18;;;;;;;;;28.75;25.00;;;;;15.45;62.54;101678.78;5091491;28;45072;-84
2022/05/05 07:14:44;;;;;;;;;27.25;24.00;;;;;15.45;62.43;101677.03;5091666;28;45212;-76
2022/05/05 07:17:10;;;;;;;;;29.50;27.75;;;;;15.03;62.24;101605.16;5090961;27;45286;-76
2022/05/05 07:19:36;;;;;;;;;24.75;23.50;;;;;15.42;62.51;101653.09;5090871;27;45645;-79
2022/05/05 07:22:02;;;;;;;;;27.50;26.50;;;;;15.18;62.47;101599.41;5091386;28;45047;-77
2022/05/05 07:24:29;;;;;;;;;30.25;27.50;;;;;15.28;62.22;101617.38;5091273;27;45066;-79
2022/05/05 07:26:55;;;;;;;;;28.25;27.00;;;;;15.27;62.02;101612.00;5091355;28;45774;-83
2022/05/05 07:29:20;;;;;;;;;29.75;27.00;;;;;15.28;62.30;101617.38;5091461;27;44935;-75
2022/05/05 07:31:46;;;;;;;;;35.50;30.50;;;;;15.23;62.29;101608.41;5091434;27;45045;-79
2022/05/05 07:34:12;;;;;;;;;29.75;27.50;;;;;15.13;62.16;101593.97;5091491;27;45369;-80
2022/05/05 07:36:37;;;;;;;;;27.25;26.25;;;;;15.72;61.88;101695.53;5090857;27;45533;-78
2022/05/05 07:39:02;;;;;;;;;33.50;30.50;;;;;15.30;62.02;101618.31;5090987;27;45036;-82
2022/05/05 07:41:28;;;;;;;;;28.75;26.00;;;;;15.41;61.87;101630.09;5091223;27;45049;-82
2022/05/05 07:43:53;;;;;;;;;27.00;26.25;;;;;15.51;61.64;101622.41;5091208;27;45028;-87
2022/05/05 07:46:19;;;;;;;;;31.00;25.00;;;;;15.64;61.61;101620.19;5090788;27;45546;-85
2022/05/05 07:48:45;;;;;;;;;33.00;27.25;;;;;15.77;61.74;101620.56;5091095;28;45090;-83
2022/05/05 07:51:11;;;;;;;;;24.50;23.75;;;;;15.98;61.32;101637.94;5089404;28;45097;-76
2022/05/05 07:53:37;;;;;;;;;24.50;23.25;;;;;16.18;60.87;101650.81;5090372;27;44942;-79
2022/05/05 07:56:03;;;;;;;;;23.00;23.00;;;;;16.56;60.44;101709.28;5090614;27;46109;-79
2022/05/05 07:58:28;;;;;;;;;24.50;23.00;;;;;16.11;59.86;101627.66;5089159;28;45024;-76
2022/05/05 08:00:54;;;;;;;;;25.00;22.00;;;;;16.12;59.65;101629.44;5092284;27;45731;-76
2022/05/05 08:03:19;;;;;;;;;24.50;22.75;;;;;16.46;59.87;101706.41;5094357;27;45162;-78
2022/05/05 08:05:44;;;;;;;;;26.75;23.50;;;;;15.97;59.31;101630.84;5094098;27;45515;-76
2022/05/05 08:08:10;;;;;;;;;26.75;23.75;;;;;15.97;59.70;101622.88;5093867;27;45107;-77
2022/05/05 08:10:36;;;;;;;;;21.50;20.75;;;;;16.20;59.49;101657.94;5094259;27;44903;-76
2022/05/05 08:13:03;;;;;;;;;26.50;24.00;;;;;16.04;59.43;101652.19;5093853;27;45107;-77
2022/05/05 08:15:29;;;;;;;;;22.75;22.00;;;;;16.32;59.80;101710.44;5093930;27;46015;-80
2022/05/05 08:17:54;;;;;;;;;23.25;22.25;;;;;16.18;59.78;101718.03;5093879;27;45125;-76
2022/05/05 08:20:20;;;;;;;;;20.50;19.50;;;;;15.54;59.94;101634.00;5094139;27;45183;-76
2022/05/05 08:22:45;;;;;;;;;23.75;22.50;;;;;15.96;60.16;101715.66;5092559;28;45198;-83
2022/05/05 08:30:39;;;;;;;;;19.75;19.25;;;;;15.64;60.84;101661.69;5093754;27;45271;-76
2022/05/05 08:33:04;;;;;;;;;24.25;23.75;;;;;15.69;60.85;101652.13;5093153;27;44945;-75
2022/05/05 08:35:30;;;;;;;;;22.75;21.50;;;;;16.10;60.45;101713.34;5093241;27;45725;-78
2022/05/05 08:37:56;;;;;;;;;21.75;19.50;;;;;15.91;60.57;101673.09;5093927;27;45228;-82
2022/05/05 08:40:27;;;;;;;;;19.75;18.75;;;;;15.88;60.74;101654.44;5094071;28;45076;-77
2022/05/05 08:42:53;;;;;;;;;23.00;22.75;;;;;15.68;60.57;101627.38;5093371;27;45171;-82
2022/05/05 08:45:19;;;;;;;;;25.50;21.75;;;;;15.72;60.62;101642.53;5093882;27;45792;-78
2022/05/05 08:47:48;;;;;;;;;23.25;22.00;;;;;16.01;59.86;101703.41;5093574;28;45180;-77
2022/05/05 08:50:14;;;;;;;;;21.50;20.00;;;;;15.81;60.02;101676.34;5093008;27;45043;-79
2022/05/05 08:52:48;;;;;;;;;23.50;21.75;;;;;15.97;59.90;101667.94;5093483;27;45168;-80
2022/05/05 08:55:21;;;;;;;;;24.25;23.50;;;;;16.09;59.60;101682.38;5093271;27;45434;-77
2022/05/05 08:57:47;;;;;;;;;17.75;16.25;;;;;15.95;59.57;101651.09;5093176;27;45710;-76
2022/05/05 09:00:15;;;;;;;;;22.75;21.25;;;;;15.98;58.83;101656.47;5093721;27;45096;-89
2022/05/05 09:02:41;;;;;;;;;24.50;23.00;;;;;16.00;58.70;101652.09;5093238;27;45029;-85
2022/05/05 09:05:08;;;;;;;;;18.25;18.25;;;;;16.42;58.85;101733.69;5093609;27;45890;-89
2022/05/05 09:07:51;;;;;;;;;26.00;23.75;;;;;16.49;58.75;101733.00;5093493;27;45460;-84
2022/05/05 09:10:18;;;;;;;;;21.50;20.50;;;;;16.13;58.53;101666.59;5093606;27;45091;-91
2022/05/05 09:12:57;;;;;;;;;22.50;22.50;;;;;16.57;58.51;101737.63;5092912;27;45122;-90
2022/05/05 09:15:33;;;;;;;;;25.50;22.75;;;;;16.12;58.95;101653.31;5093331;27;45378;-88
2022/05/05 09:18:14;;;;;;;;;20.25;20.25;;;;;16.20;58.42;101643.78;5093176;27;45186;-79
2022/05/05 09:20:42;;;;;;;;;23.25;23.25;;;;;16.99;58.10;101735.16;5093150;27;44992;-85
2022/05/05 09:23:07;;;;;;;;;22.00;20.25;;;;;17.00;57.72;101682.09;5093058;27;45002;-87
2022/05/05 09:25:49;;;;;;;;;21.00;19.75;;;;;17.13;56.79;101661.13;5093587;28;47392;-78
2022/05/05 09:28:22;;;;;;;;;18.00;17.25;;;;;17.35;56.39;101676.69;5096728;27;45239;-83
2022/05/05 09:30:52;;;;;;;;;20.00;18.00;;;;;17.60;56.25;101704.69;5095887;27;44924;-86
2022/05/05 09:33:42;;;;;;;;;20.50;20.00;;;;;17.56;55.94;101662.03;5093411;27;45351;-81
2022/05/05 09:36:10;;;;;;;;;24.75;21.50;;;;;17.94;55.93;101706.31;5093280;28;45194;-77
2022/05/05 09:39:00;;;;;;;;;19.25;17.75;;;;;18.21;55.60;101723.66;5093014;27;45459;-80
2022/05/05 09:41:32;;;;;;;;;18.00;18.00;;;;;18.10;55.48;101677.34;5092642;28;45065;-80
2022/05/05 09:44:00;;;;;;;;;19.00;18.25;;;;;17.94;54.58;101658.44;5091720;27;44978;-76
2022/05/05 09:46:25;;;;;;;;;14.00;14.00;;;;;18.29;54.38;101730.91;5091860;27;45763;-77
2022/05/05 09:49:03;;;;;;;;;18.00;17.25;;;;;18.07;54.02;101723.38;5092386;27;44903;-82
2022/05/05 09:51:29;;;;;;;;;16.50;16.00;;;;;17.72;54.47;101682.75;5108525;27;45163;-91
2022/05/05 09:59:30;;;;;;;;;15.75;13.50;;;;;17.76;54.57;101664.28;5092473;27;45052;-87
2022/05/05 10:02:04;;;;;;;;;13.50;13.00;;;;;18.48;53.82;101718.84;5108617;27;44979;-89
2022/05/05 10:04:33;;;;;;;;;15.50;14.00;;;;;18.33;53.84;101672.44;5092687;27;44934;-88
2022/05/05 10:07:02;;;;;;;;;13.75;13.00;;;;;18.39;53.37;101669.88;5091346;27;47857;-88
2022/05/05 10:09:28;;;;;;;;;14.00;13.00;;;;;18.33;53.13;101659.13;5092426;27;45465;-91
2022/05/05 10:11:54;;;;;;;;;11.00;11.00;;;;;18.44;53.10;101668.19;5092868;27;45139;-86
2022/05/05 10:14:21;;;;;;;;;11.00;10.25;;;;;18.68;52.46;101673.97;5092839;27;44977;-87
2022/05/05 10:16:46;;;;;;;;;9.00;9.00;;;;;18.74;51.85;101665.16;5090927;27;45321;-91
2022/05/05 10:19:11;;;;;;;;;11.25;11.25;;;;;19.16;51.25;101717.31;5091826;27;44887;-88
2022/05/05 10:21:44;;;;;;;;;12.00;11.50;;;;;18.88;51.55;101652.97;5092438;27;45033;-89
2022/05/05 10:24:26;;;;;;;;;12.50;12.00;;;;;19.17;50.58;101705.78;5091295;27;45012;-93
2022/05/05 10:27:03;;;;;;;;;10.75;10.50;;;;;19.17;50.51;101722.69;5092105;27;45047;-92
2022/05/05 10:29:31;;;;;;;;;8.75;8.50;;;;;19.20;50.43;101716.47;5092219;27;44993;-87
2022/05/05 10:32:20;;;;;;;;;12.00;11.75;;;;;18.86;50.18;101613.84;5092208;27;45248;-91
2022/05/05 10:34:51;;;;;;;;;12.50;12.50;;;;;19.24;49.85;101681.00;5092613;27;45071;-90
2022/05/05 10:37:30;;;;;;;;;11.50;11.00;;;;;18.97;50.26;101629.13;5091873;27;45425;-93
2022/05/05 10:39:59;;;;;;;;;9.25;9.25;;;;;19.46;49.30;101717.78;5091578;28;45343;-92
2022/05/05 10:42:27;;;;;;;;;11.75;10.00;;;;;19.34;48.90;101713.16;5092387;28;44921;-89
2022/05/05 10:45:12;;;;;;;;;7.25;7.25;;;;;18.96;49.22;101663.72;5091897;27;45189;-85
2022/05/05 10:48:06;;;;;;;;;9.50;8.50;;;;;19.50;49.09;101718.69;5091726;27;45884;-90
2022/05/05 10:50:50;;;;;;;;;7.25;7.25;;;;;19.20;48.09;101650.75;5088392;28;45061;-85
2022/05/05 10:53:31;;;;;;;;;9.75;9.00;;;;;19.09;47.95;101647.03;5092035;28;45009;-89
2022/05/05 10:55:59;;;;;;;;;8.00;8.00;;;;;19.29;47.93;101713.94;5092002;27;45093;-88
2022/05/05 10:59:04;;;;;;;;;11.00;8.75;;;;;19.05;48.55;101715.38;5092110;27;45639;-89
2022/05/05 11:01:46;;;;;;;;;8.00;7.50;;;;;18.40;48.65;101637.94;5091168;28;45509;-83
2022/05/05 11:04:20;;;;;;;;;10.75;9.50;;;;;18.69;48.81;101720.13;5091471;27;44987;-79
2022/05/05 11:06:50;;;;;;;;;8.50;7.50;;;;;18.59;48.98;101710.16;5091957;27;45323;-80
2022/05/05 11:09:37;;;;;;;;;7.00;7.00;;;;;18.10;48.91;101617.03;5091389;27;45865;-82
2022/05/05 11:12:22;;;;;;;;;7.25;7.00;;;;;18.41;48.77;101663.69;5089586;28;45668;-86
2022/05/05 11:23:31;;;;;;;;;9.25;8.75;;;;;19.78;48.33;101702.19;5090854;28;45486;-76
2022/05/05 11:25:57;;;;;;;;;9.25;8.25;;;;;19.56;47.48;101630.78;5091365;27;45061;-81
2022/05/05 11:28:22;;;;;;;;;8.25;8.00;;;;;19.99;47.97;101652.63;5091058;28;45042;-78
2022/05/05 11:30:48;;;;;;;;;8.25;8.25;;;;;20.03;47.42;101654.44;5091164;27;45154;-78
2022/05/05 11:33:13;;;;;;;;;7.25;6.25;;;;;20.08;46.20;101704.31;5090545;27;45209;-80
2022/05/05 11:35:38;;;;;;;;;4.25;3.75;;;;;19.52;45.75;101650.28;5091980;27;45095;-84
2022/05/05 11:38:09;;;;;;;;;7.25;7.00;;;;;19.45;46.44;101683.97;5093095;27;45230;-79
2022/05/05 11:40:35;;;;;;;;;6.00;5.75;;;;;19.09;47.04;101657.69;5094596;28;45150;-76
2022/05/05 11:45:52;;;;;;;;;7.25;7.25;;;;;18.68;47.38;101642.00;5094827;27;45111;-75
2022/05/05 11:48:18;;;;;;;;;8.25;7.25;;;;;18.67;47.51;101672.16;5093211;27;45286;-78
2022/05/05 11:50:44;;;;;;;;;6.00;5.75;;;;;18.31;48.23;101627.16;5093635;27;45170;-78
2022/05/05 11:53:17;;;;;;;;;6.50;6.50;;;;;18.71;48.49;101715.72;5094648;27;45156;-76
2022/05/05 11:55:46;;;;;;;;;5.00;5.00;;;;;18.33;48.50;101662.69;5094361;27;45076;-75
2022/05/05 12:01:36;;;;;;;;;6.25;5.75;;;;;18.27;48.20;101646.59;5094361;27;45180;-80
2022/05/05 12:04:00;;;;;;;;;6.50;6.50;;;;;18.92;48.16;101708.09;5094143;28;45502;-76